Hovedside
METAR-TAF:

METAR-TAF

Lufthavner :

Réunion Roland Garros internasjonale lufthavn

Saint-Denis, Réunion

breddegrad: 20-53S, lengdegrad: 055-31E, høyde over havet: 21 m

Gjeldene værobservasjon

Denne rapporten ble laget for 31 minutter siden, klokken 03:30 UTC
Vind 10 kt fra Øst-sørøst
Temperatur 22°C
Luftfuktighet 65%
Trykk 1022 hPa
Sikt 10 km eller mer

METAR: FMEE 200330Z AUTO 11010KT 9999 NCD 22/15 Q1022 BECMG 10015G25KT

Tid: 08:01 (04:01 UTC)

Varsel

Denne rapporten ble laget for 5 timer og 1 minutter siden, klokken 23:00 UTC
Varsel gyldig fra 20. klokken 00 UTC til 21. klokken 06 UTC
Vind 10 kt fra Øst-sørøst
Sikt 10 km eller mer
ingen skyer under 1500 m og ingen bygeskyer
Blir
fra 20. klokken 04 UTC til 20. klokken 06 UTC
Vind 15 kt fra Øst med vindkast opp mot 25 kt
Blir
fra 20. klokken 12 UTC til 20. klokken 14 UTC
Vind 10 kt fra Sørøst

TAF: FMEE 192300Z 2000/2106 12010KT CAVOK BECMG 2004/2006 10015G25KT BECMG 2012/2014 13010KT

Værobservasjoner og værvarsel for over 4000 flyplasser (METAR- og TAF-rapporter).

Tilgjengelige stasjoner er representert av de røde og gule prikkene på kartet.

Hold musepekeren over prikken for å se navnet på stasjonen.

Klikk så for å se værobservasjoner og -varsler.

For å forandre kartet kan du klikke på den grønne knappen med svart kryss for å zoome inn, på den grønne knappen med strek for å zoome ut, eller på de grønne pilene for å se tilstøtende kart.


METAR-TAF: